LFSB/MLH METAR and TAF weather

Enter ICAO airport designator
Station Type Date Time Source
LFSB METAR 2021/01/27 13:00 UTC NOAA

LFSB 271300Z 17003KT 100V220 1200 R15/1500N R33/1200N -SN BKN004 BKN010 00/M00 Q1017 TEMPO 1000 SN BKN003


Station Type Date Time Source
LFSB Decoded METAR 2021/01/27 13:00 UTC NOAA

Bale-Mulhouse, France (LFSB) 47-36N 007-31E 271M
Jan 27, 2021 - 08:00 AM EST / 2021.01.27 1300 UTC
Wind: from the S (170 degrees) at 3 MPH (3 KT) (direction variable):0
Visibility: less than 1 mile:0
Sky conditions: mostly cloudy
Weather: light snow
Temperature: 32 F (0 C)
Dew Point: 32 F (0 C)
Relative Humidity: 100%
Pressure (altimeter): 30.03 in. Hg (1017 hPa)
ob: LFSB 271300Z 17003KT 100V220 1200 R15/1500N R33/1200N -SN BKN004 BKN010 00/M00 Q1017 TEMPO 1000 SN BKN003
cycle: 13

Station Type Date Time Source
LFSB TAF 2021/01/27 12:48 UTC NOAA

TAF
AMD TAF
AMD LFSB 271245Z 2712/2812 17006KT 9999 FEW020 BKN060
TEMPO 2712/2715 4000 SNRA PROB40
TEMPO 2712/2715 1200 SN BKN003
TEMPO 2715/2812 -RA BKN020 PROB40
TEMPO 2715/2718 4000 RASN PROB40
TEMPO 2721/2812 3000 RA BKN013
BECMG 2808/2810 25015G25KT

Example: see airport list